sensor_id;sensor_type;location;lat;lon;timestamp;pressure;altitude;pressure_sealevel;temperature;humidity
13612;BME280;6877;51.436;6.774;2023-02-18T00:01:42;101824.50;;;10.53;97.76
13612;BME280;6877;51.436;6.774;2023-02-18T00:04:08;101833.19;;;10.52;97.82
13612;BME280;6877;51.436;6.774;2023-02-18T00:06:35;101820.97;;;10.53;97.68
13612;BME280;6877;51.436;6.774;2023-02-18T00:09:03;101819.25;;;10.52;97.84
13612;BME280;6877;51.436;6.774;2023-02-18T00:11:36;101813.13;;;10.51;98.09
13612;BME280;6877;51.436;6.774;2023-02-18T00:14:11;101809.63;;;10.52;98.10
13612;BME280;6877;51.436;6.774;2023-02-18T00:16:43;101804.41;;;10.51;98.27
13612;BME280;6877;51.436;6.774;2023-02-18T00:19:18;101799.19;;;10.51;98.37
13612;BME280;6877;51.436;6.774;2023-02-18T00:21:50;101806.19;;;10.50;98.36
13612;BME280;6877;51.436;6.774;2023-02-18T00:24:16;101797.41;;;10.50;98.56
13612;BME280;6877;51.436;6.774;2023-02-18T00:26:51;101787.84;;;10.49;98.56
13612;BME280;6877;51.436;6.774;2023-02-18T00:29:18;101793.06;;;10.49;98.59
13612;BME280;6877;51.436;6.774;2023-02-18T00:31:45;101788.72;;;10.48;98.41
13612;BME280;6877;51.436;6.774;2023-02-18T00:34:16;101793.06;;;10.49;98.49
13612;BME280;6877;51.436;6.774;2023-02-18T00:36:43;101796.56;;;10.49;98.79
13612;BME280;6877;51.436;6.774;2023-02-18T00:39:10;101794.81;;;10.48;98.47
13612;BME280;6877;51.436;6.774;2023-02-18T00:41:42;101793.06;;;10.49;98.65
13612;BME280;6877;51.436;6.774;2023-02-18T00:44:09;101789.56;;;10.50;98.58
13612;BME280;6877;51.436;6.774;2023-02-18T00:46:41;101787.84;;;10.49;98.74
13612;BME280;6877;51.436;6.774;2023-02-18T00:49:08;101775.63;;;10.48;99.07
13612;BME280;6877;51.436;6.774;2023-02-18T00:51:35;101773.91;;;10.47;98.74
13612;BME280;6877;51.436;6.774;2023-02-18T00:54:02;101777.38;;;10.46;99.02
13612;BME280;6877;51.436;6.774;2023-02-18T00:56:28;101764.28;;;10.46;99.47
13612;BME280;6877;51.436;6.774;2023-02-18T00:58:59;101762.56;;;10.44;99.25
13612;BME280;6877;51.436;6.774;2023-02-18T01:01:26;101766.91;;;10.46;99.16
13612;BME280;6877;51.436;6.774;2023-02-18T01:03:53;101755.56;;;10.45;99.41
13612;BME280;6877;51.436;6.774;2023-02-18T01:06:24;101758.22;;;10.43;99.30
13612;BME280;6877;51.436;6.774;2023-02-18T01:08:51;101750.34;;;10.43;99.46
13612;BME280;6877;51.436;6.774;2023-02-18T01:11:17;101750.34;;;10.42;99.38
13612;BME280;6877;51.436;6.774;2023-02-18T01:13:49;101761.69;;;10.42;99.47
13612;BME280;6877;51.436;6.774;2023-02-18T01:16:15;101753.84;;;10.44;99.56
13612;BME280;6877;51.436;6.774;2023-02-18T01:18:47;101757.31;;;10.41;99.40
13612;BME280;6877;51.436;6.774;2023-02-18T01:21:13;101764.28;;;10.42;99.66
13612;BME280;6877;51.436;6.774;2023-02-18T01:23:45;101748.59;;;10.42;99.79
13612;BME280;6877;51.436;6.774;2023-02-18T01:26:16;101756.44;;;10.42;99.68
13612;BME280;6877;51.436;6.774;2023-02-18T01:28:43;101746.84;;;10.41;99.91
13612;BME280;6877;51.436;6.774;2023-02-18T01:31:11;101741.63;;;10.41;99.98
13612;BME280;6877;51.436;6.774;2023-02-18T01:33:43;101739.91;;;10.40;100.00
13612;BME280;6877;51.436;6.774;2023-02-18T01:36:10;101735.50;;;10.39;100.00
13612;BME280;6877;51.436;6.774;2023-02-18T01:38:42;101736.41;;;10.38;100.00
13612;BME280;6877;51.436;6.774;2023-02-18T01:41:13;101725.03;;;10.39;100.00
13612;BME280;6877;51.436;6.774;2023-02-18T01:43:45;101725.06;;;10.36;100.00
13612;BME280;6877;51.436;6.774;2023-02-18T01:49:03;101726.81;;;10.37;100.00
13612;BME280;6877;51.436;6.774;2023-02-18T01:51:43;101724.19;;;10.36;99.79
13612;BME280;6877;51.436;6.774;2023-02-18T01:54:18;101722.44;;;10.36;99.90
13612;BME280;6877;51.436;6.774;2023-02-18T01:56:57;101718.94;;;10.36;99.83
13612;BME280;6877;51.436;6.774;2023-02-18T01:59:36;101720.69;;;10.37;99.81
13612;BME280;6877;51.436;6.774;2023-02-18T02:02:12;101722.44;;;10.38;99.95
13612;BME280;6877;51.436;6.774;2023-02-18T02:04:39;101711.13;;;10.37;99.77
13612;BME280;6877;51.436;6.774;2023-02-18T02:07:11;101711.97;;;10.36;99.65
13612;BME280;6877;51.436;6.774;2023-02-18T02:09:39;101698.91;;;10.38;99.85
13612;BME280;6877;51.436;6.774;2023-02-18T02:32:39;101687.56;;;10.37;99.93
13612;BME280;6877;51.436;6.774;2023-02-18T02:35:24;101691.91;;;10.35;100.00
13612;BME280;6877;51.436;6.774;2023-02-18T02:38:05;101687.56;;;10.36;100.00
13612;BME280;6877;51.436;6.774;2023-02-18T02:49:21;101671.00;;;10.32;100.00
13612;BME280;6877;51.436;6.774;2023-02-18T02:52:14;101682.34;;;10.33;100.00
13612;BME280;6877;51.436;6.774;2023-02-18T02:54:43;101674.50;;;10.31;100.00
13612;BME280;6877;51.436;6.774;2023-02-18T02:59:46;101670.13;;;10.26;100.00
13612;BME280;6877;51.436;6.774;2023-02-18T03:05:22;101657.91;;;10.20;100.00
13612;BME280;6877;51.436;6.774;2023-02-18T03:16:05;101633.56;;;9.86;100.00
13612;BME280;6877;51.436;6.774;2023-02-18T03:18:47;101625.75;;;9.81;100.00
13612;BME280;6877;51.436;6.774;2023-02-18T03:21:22;101621.38;;;9.79;100.00
13612;BME280;6877;51.436;6.774;2023-02-18T03:24:00;101626.59;;;9.77;100.00
13612;BME280;6877;51.436;6.774;2023-02-18T03:26:29;101621.38;;;9.80;100.00
13612;BME280;6877;51.436;6.774;2023-02-18T03:29:03;101621.38;;;9.79;100.00
13612;BME280;6877;51.436;6.774;2023-02-18T03:31:32;101619.66;;;9.81;100.00
13612;BME280;6877;51.436;6.774;2023-02-18T03:34:10;101607.44;;;9.81;100.00
13612;BME280;6877;51.436;6.774;2023-02-18T03:36:43;101600.47;;;9.82;100.00
13612;BME280;6877;51.436;6.774;2023-02-18T03:39:17;101597.84;;;9.83;100.00
13612;BME280;6877;51.436;6.774;2023-02-18T03:41:48;101602.19;;;9.86;100.00
13612;BME280;6877;51.436;6.774;2023-02-18T03:44:15;101599.59;;;9.87;100.00
13612;BME280;6877;51.436;6.774;2023-02-18T03:46:43;101596.09;;;9.88;100.00
13612;BME280;6877;51.436;6.774;2023-02-18T03:49:12;101594.34;;;9.90;100.00
13612;BME280;6877;51.436;6.774;2023-02-18T03:51:44;101588.25;;;9.91;100.00
13612;BME280;6877;51.436;6.774;2023-02-18T03:54:10;101585.63;;;9.91;100.00
13612;BME280;6877;51.436;6.774;2023-02-18T03:56:44;101585.63;;;9.91;100.00
13612;BME280;6877;51.436;6.774;2023-02-18T03:59:11;101580.41;;;9.94;100.00
13612;BME280;6877;51.436;6.774;2023-02-18T04:01:43;101578.66;;;9.95;100.00
13612;BME280;6877;51.436;6.774;2023-02-18T04:04:14;101577.75;;;9.96;100.00
13612;BME280;6877;51.436;6.774;2023-02-18T04:06:46;101571.66;;;9.98;100.00
13612;BME280;6877;51.436;6.774;2023-02-18T04:09:12;101567.31;;;10.01;100.00
13612;BME280;6877;51.436;6.774;2023-02-18T04:11:39;101563.81;;;10.02;100.00
13612;BME280;6877;51.436;6.774;2023-02-18T04:14:06;101558.59;;;10.00;100.00
13612;BME280;6877;51.436;6.774;2023-02-18T04:16:33;101561.19;;;10.02;100.00
13612;BME280;6877;51.436;6.774;2023-02-18T04:19:04;101556.81;;;10.02;100.00
13612;BME280;6877;51.436;6.774;2023-02-18T04:21:36;101555.13;;;10.00;100.00
13612;BME280;6877;51.436;6.774;2023-02-18T04:24:02;101549.00;;;9.99;100.00
13612;BME280;6877;51.436;6.774;2023-02-18T04:26:29;101556.00;;;9.97;100.00
13612;BME280;6877;51.436;6.774;2023-02-18T04:28:55;101551.63;;;9.94;100.00
13612;BME280;6877;51.436;6.774;2023-02-18T04:31:27;101549.91;;;9.90;100.00
13612;BME280;6877;51.436;6.774;2023-02-18T04:33:53;101545.53;;;9.89;100.00
13612;BME280;6877;51.436;6.774;2023-02-18T04:36:20;101547.31;;;9.87;100.00
13612;BME280;6877;51.436;6.774;2023-02-18T04:38:51;101541.25;;;9.78;100.00
13612;BME280;6877;51.436;6.774;2023-02-18T04:41:22;101538.63;;;9.70;100.00
13612;BME280;6877;51.436;6.774;2023-02-18T04:43:54;101537.78;;;9.63;100.00
13612;BME280;6877;51.436;6.774;2023-02-18T04:46:22;101535.19;;;9.56;100.00
13612;BME280;6877;51.436;6.774;2023-02-18T04:48:53;101538.66;;;9.50;100.00
13612;BME280;6877;51.436;6.774;2023-02-18T04:51:20;101532.59;;;9.46;100.00
13612;BME280;6877;51.436;6.774;2023-02-18T04:53:46;101529.97;;;9.42;100.00
13612;BME280;6877;51.436;6.774;2023-02-18T04:56:18;101521.25;;;9.38;100.00
13612;BME280;6877;51.436;6.774;2023-02-18T04:58:50;101516.03;;;9.35;100.00
13612;BME280;6877;51.436;6.774;2023-02-18T05:01:16;101523.88;;;9.32;100.00
13612;BME280;6877;51.436;6.774;2023-02-18T05:03:42;101517.78;;;9.32;100.00
13612;BME280;6877;51.436;6.774;2023-02-18T05:06:16;101514.31;;;9.31;100.00
13612;BME280;6877;51.436;6.774;2023-02-18T05:08:47;101504.72;;;9.28;100.00
13612;BME280;6877;51.436;6.774;2023-02-18T05:11:19;101513.44;;;9.27;100.00
13612;BME280;6877;51.436;6.774;2023-02-18T05:13:50;101512.56;;;9.25;100.00
13612;BME280;6877;51.436;6.774;2023-02-18T05:16:21;101505.59;;;9.26;100.00
13612;BME280;6877;51.436;6.774;2023-02-18T05:18:53;101496.91;;;9.24;100.00
13612;BME280;6877;51.436;6.774;2023-02-18T05:21:25;101495.16;;;9.23;100.00
13612;BME280;6877;51.436;6.774;2023-02-18T05:23:56;101500.41;;;9.21;100.00
13612;BME280;6877;51.436;6.774;2023-02-18T05:26:28;101486.47;;;9.22;100.00
13612;BME280;6877;51.436;6.774;2023-02-18T05:28:54;101486.47;;;9.21;100.00
13612;BME280;6877;51.436;6.774;2023-02-18T05:31:27;101476.03;;;9.24;100.00
13612;BME280;6877;51.436;6.774;2023-02-18T05:33:53;101477.75;;;9.22;100.00
13612;BME280;6877;51.436;6.774;2023-02-18T05:36:25;101473.41;;;9.21;100.00
13612;BME280;6877;51.436;6.774;2023-02-18T05:38:51;101466.44;;;9.20;100.00
13612;BME280;6877;51.436;6.774;2023-02-18T05:41:23;101465.59;;;9.21;100.00
13612;BME280;6877;51.436;6.774;2023-02-18T05:43:54;101463.84;;;9.21;100.00
13612;BME280;6877;51.436;6.774;2023-02-18T05:46:40;101460.34;;;9.21;100.00
13612;BME280;6877;51.436;6.774;2023-02-18T05:49:06;101450.78;;;9.21;100.00
13612;BME280;6877;51.436;6.774;2023-02-18T05:51:32;101460.34;;;9.21;100.00
13612;BME280;6877;51.436;6.774;2023-02-18T05:53:59;101447.28;;;9.21;100.00
13612;BME280;6877;51.436;6.774;2023-02-18T05:56:25;101438.56;;;9.20;100.00
13612;BME280;6877;51.436;6.774;2023-02-18T05:58:57;101454.25;;;9.20;100.00
13612;BME280;6877;51.436;6.774;2023-02-18T06:01:28;101449.91;;;9.21;100.00
13612;BME280;6877;51.436;6.774;2023-02-18T06:03:54;101443.81;;;9.19;100.00
13612;BME280;6877;51.436;6.774;2023-02-18T06:06:21;101442.94;;;9.20;100.00
13612;BME280;6877;51.436;6.774;2023-02-18T06:08:47;101446.41;;;9.20;100.00
13612;BME280;6877;51.436;6.774;2023-02-18T06:11:13;101433.34;;;9.20;100.00
13612;BME280;6877;51.436;6.774;2023-02-18T06:13:40;101446.41;;;9.19;100.00
13612;BME280;6877;51.436;6.774;2023-02-18T06:16:11;101440.31;;;9.20;100.00
13612;BME280;6877;51.436;6.774;2023-02-18T06:18:43;101449.03;;;9.19;100.00
13612;BME280;6877;51.436;6.774;2023-02-18T06:21:09;101445.56;;;9.18;100.00
13612;BME280;6877;51.436;6.774;2023-02-18T06:23:41;101435.97;;;9.19;100.00
13612;BME280;6877;51.436;6.774;2023-02-18T06:26:12;101442.06;;;9.19;100.00
13612;BME280;6877;51.436;6.774;2023-02-18T06:28:39;101429.88;;;9.18;100.00
13612;BME280;6877;51.436;6.774;2023-02-18T06:31:10;101431.63;;;9.16;100.00
13612;BME280;6877;51.436;6.774;2023-02-18T06:33:42;101438.59;;;9.16;100.00
13612;BME280;6877;51.436;6.774;2023-02-18T06:36:10;101430.75;;;9.13;100.00
13612;BME280;6877;51.436;6.774;2023-02-18T06:38:42;101442.06;;;9.13;100.00
13612;BME280;6877;51.436;6.774;2023-02-18T06:41:10;101444.69;;;9.12;100.00
13612;BME280;6877;51.436;6.774;2023-02-18T06:43:41;101441.22;;;9.13;100.00
13612;BME280;6877;51.436;6.774;2023-02-18T06:46:08;101446.44;;;9.11;100.00
13612;BME280;6877;51.436;6.774;2023-02-18T06:48:39;101456.88;;;9.13;100.00
13612;BME280;6877;51.436;6.774;2023-02-18T06:51:06;101460.34;;;9.10;100.00
13612;BME280;6877;51.436;6.774;2023-02-18T06:53:37;101456.00;;;9.09;100.00
13612;BME280;6877;51.436;6.774;2023-02-18T06:56:04;101451.66;;;9.10;100.00
13612;BME280;6877;51.436;6.774;2023-02-18T06:58:35;101455.16;;;9.09;100.00
13612;BME280;6877;51.436;6.774;2023-02-18T07:01:07;101454.28;;;9.08;100.00
13612;BME280;6877;51.436;6.774;2023-02-18T07:03:38;101447.31;;;9.09;100.00
13612;BME280;6877;51.436;6.774;2023-02-18T07:06:05;101435.97;;;9.10;100.00
13612;BME280;6877;51.436;6.774;2023-02-18T07:08:37;101429.88;;;9.11;100.00
13612;BME280;6877;51.436;6.774;2023-02-18T07:11:04;101435.97;;;9.10;100.00
13612;BME280;6877;51.436;6.774;2023-02-18T07:13:31;101436.84;;;9.10;100.00
13612;BME280;6877;51.436;6.774;2023-02-18T07:15:58;101436.00;;;9.11;100.00
13612;BME280;6877;51.436;6.774;2023-02-18T07:18:24;101438.63;;;9.11;100.00
13612;BME280;6877;51.436;6.774;2023-02-18T07:20:50;101436.88;;;9.12;100.00
13612;BME280;6877;51.436;6.774;2023-02-18T07:23:22;101458.59;;;9.14;100.00
13612;BME280;6877;51.436;6.774;2023-02-18T07:26:02;101457.75;;;9.15;100.00
13612;BME280;6877;51.436;6.774;2023-02-18T07:28:29;101465.59;;;9.15;100.00
13612;BME280;6877;51.436;6.774;2023-02-18T07:30:55;101456.88;;;9.19;100.00
13612;BME280;6877;51.436;6.774;2023-02-18T07:33:22;101456.88;;;9.22;100.00
13612;BME280;6877;51.436;6.774;2023-02-18T07:35:55;101466.44;;;9.24;100.00
13612;BME280;6877;51.436;6.774;2023-02-18T07:38:23;101457.72;;;9.28;100.00
13612;BME280;6877;51.436;6.774;2023-02-18T07:40:56;101471.63;;;9.32;100.00
13612;BME280;6877;51.436;6.774;2023-02-18T07:43:23;101468.16;;;9.33;100.00
13612;BME280;6877;51.436;6.774;2023-02-18T07:45:49;101468.16;;;9.35;100.00
13612;BME280;6877;51.436;6.774;2023-02-18T07:48:21;101465.53;;;9.38;100.00
13612;BME280;6877;51.436;6.774;2023-02-18T07:50:52;101464.69;;;9.37;100.00
13612;BME280;6877;51.436;6.774;2023-02-18T07:53:23;101463.78;;;9.38;100.00
13612;BME280;6877;51.436;6.774;2023-02-18T07:55:50;101449.84;;;9.39;100.00
13612;BME280;6877;51.436;6.774;2023-02-18T07:58:24;101470.75;;;9.36;100.00
13612;BME280;6877;51.436;6.774;2023-02-18T08:00:51;101466.41;;;9.35;100.00
13612;BME280;6877;51.436;6.774;2023-02-18T08:03:21;101494.28;;;9.33;100.00
13612;BME280;6877;51.436;6.774;2023-02-18T08:05:53;101482.97;;;9.28;100.00
13612;BME280;6877;51.436;6.774;2023-02-18T08:08:27;101499.53;;;9.24;100.00
13612;BME280;6877;51.436;6.774;2023-02-18T08:10:55;101487.31;;;9.17;100.00
13612;BME280;6877;51.436;6.774;2023-02-18T08:13:22;101496.03;;;9.13;100.00
13612;BME280;6877;51.436;6.774;2023-02-18T08:15:57;101500.38;;;9.11;100.00
13612;BME280;6877;51.436;6.774;2023-02-18T08:18:25;101499.53;;;9.10;100.00
13612;BME280;6877;51.436;6.774;2023-02-18T08:20:57;101488.22;;;9.14;100.00
13612;BME280;6877;51.436;6.774;2023-02-18T08:23:23;101481.22;;;9.19;100.00
13612;BME280;6877;51.436;6.774;2023-02-18T08:25:52;101483.84;;;9.27;100.00
13612;BME280;6877;51.436;6.774;2023-02-18T08:28:24;101482.09;;;9.37;100.00
13612;BME280;6877;51.436;6.774;2023-02-18T08:30:55;101491.66;;;9.47;100.00
13612;BME280;6877;51.436;6.774;2023-02-18T08:33:22;101495.13;;;9.47;100.00
13612;BME280;6877;51.436;6.774;2023-02-18T08:35:51;101485.56;;;9.40;100.00
13612;BME280;6877;51.436;6.774;2023-02-18T08:38:23;101495.16;;;9.32;100.00
13612;BME280;6877;51.436;6.774;2023-02-18T08:41:03;101489.94;;;9.23;100.00
13612;BME280;6877;51.436;6.774;2023-02-18T08:43:29;101503.00;;;9.15;100.00
13612;BME280;6877;51.436;6.774;2023-02-18T08:45:57;101487.31;;;9.11;100.00
13612;BME280;6877;51.436;6.774;2023-02-18T08:48:24;101486.47;;;9.09;100.00
13612;BME280;6877;51.436;6.774;2023-02-18T08:50:56;101493.44;;;9.10;100.00
13612;BME280;6877;51.436;6.774;2023-02-18T08:53:23;101498.66;;;9.10;100.00
13612;BME280;6877;51.436;6.774;2023-02-18T08:55:49;101484.72;;;9.08;100.00
13612;BME280;6877;51.436;6.774;2023-02-18T08:58:16;101496.94;;;9.05;100.00
13612;BME280;6877;51.436;6.774;2023-02-18T09:00:43;101494.28;;;9.04;100.00
13612;BME280;6877;51.436;6.774;2023-02-18T09:03:15;101486.47;;;9.02;100.00
13612;BME280;6877;51.436;6.774;2023-02-18T09:05:41;101487.31;;;9.01;100.00
13612;BME280;6877;51.436;6.774;2023-02-18T09:08:08;101484.72;;;9.04;100.00
13612;BME280;6877;51.436;6.774;2023-02-18T09:10:34;101483.84;;;9.07;100.00
13612;BME280;6877;51.436;6.774;2023-02-18T09:13:01;101473.41;;;9.07;100.00
13612;BME280;6877;51.436;6.774;2023-02-18T09:15:27;101479.50;;;9.11;100.00
13612;BME280;6877;51.436;6.774;2023-02-18T09:17:59;101476.03;;;9.15;100.00
13612;BME280;6877;51.436;6.774;2023-02-18T09:20:30;101482.97;;;9.13;100.00
13612;BME280;6877;51.436;6.774;2023-02-18T09:22:57;101484.72;;;9.14;100.00
13612;BME280;6877;51.436;6.774;2023-02-18T09:25:23;101477.75;;;9.16;100.00
13612;BME280;6877;51.436;6.774;2023-02-18T09:27:50;101487.34;;;9.15;100.00
13612;BME280;6877;51.436;6.774;2023-02-18T09:30:16;101478.66;;;9.15;100.00
13612;BME280;6877;51.436;6.774;2023-02-18T09:32:43;101485.63;;;9.14;99.81
13612;BME280;6877;51.436;6.774;2023-02-18T09:35:09;101487.31;;;9.17;99.84
13612;BME280;6877;51.436;6.774;2023-02-18T09:37:36;101488.22;;;9.19;99.70
13612;BME280;6877;51.436;6.774;2023-02-18T09:42:47;101475.13;;;9.17;99.46
13612;BME280;6877;51.436;6.774;2023-02-18T09:45:14;101474.25;;;9.20;98.90
13612;BME280;6877;51.436;6.774;2023-02-18T09:47:42;101466.41;;;9.26;98.20
13612;BME280;6877;51.436;6.774;2023-02-18T09:50:20;101469.88;;;9.36;98.72
13612;BME280;6877;51.436;6.774;2023-02-18T09:52:47;101477.72;;;9.40;96.64
13612;BME280;6877;51.436;6.774;2023-02-18T09:55:21;101462.03;;;9.46;96.52
13612;BME280;6877;51.436;6.774;2023-02-18T09:58:13;101455.94;;;9.50;95.99
13612;BME280;6877;51.436;6.774;2023-02-18T10:00:43;101462.03;;;9.56;95.33
13612;BME280;6877;51.436;6.774;2023-02-18T10:03:14;101453.28;;;9.55;95.70
13612;BME280;6877;51.436;6.774;2023-02-18T10:08:23;101462.91;;;9.39;97.14
13612;BME280;6877;51.436;6.774;2023-02-18T10:10:51;101467.28;;;9.37;97.56
13612;BME280;6877;51.436;6.774;2023-02-18T10:13:23;101472.47;;;9.42;97.05
13612;BME280;6877;51.436;6.774;2023-02-18T10:15:51;101481.19;;;9.42;97.45
13612;BME280;6877;51.436;6.774;2023-02-18T10:21:19;101477.75;;;9.28;98.64
13612;BME280;6877;51.436;6.774;2023-02-18T10:23:59;101468.16;;;9.25;98.18
13612;BME280;6877;51.436;6.774;2023-02-18T10:26:29;101487.31;;;9.17;99.36
13612;BME280;6877;51.436;6.774;2023-02-18T10:28:57;101476.03;;;9.02;100.00
13612;BME280;6877;51.436;6.774;2023-02-18T10:31:32;101481.25;;;8.89;100.00
13612;BME280;6877;51.436;6.774;2023-02-18T10:36:41;101492.53;;;8.72;100.00
13612;BME280;6877;51.436;6.774;2023-02-18T10:44:40;101489.09;;;8.73;100.00
13612;BME280;6877;51.436;6.774;2023-02-18T10:50:24;101507.34;;;8.67;100.00
13612;BME280;6877;51.436;6.774;2023-02-18T10:53:01;101496.88;;;8.59;100.00
13612;BME280;6877;51.436;6.774;2023-02-18T10:55:43;101502.09;;;8.53;100.00
13612;BME280;6877;51.436;6.774;2023-02-18T10:58:26;101505.56;;;8.49;100.00
13612;BME280;6877;51.436;6.774;2023-02-18T11:00:55;101504.69;;;8.46;100.00
13612;BME280;6877;51.436;6.774;2023-02-18T11:03:25;101512.50;;;8.44;100.00
13612;BME280;6877;51.436;6.774;2023-02-18T11:05:55;101515.13;;;8.43;100.00
13612;BME280;6877;51.436;6.774;2023-02-18T11:08:26;101519.47;;;8.42;100.00
13612;BME280;6877;51.436;6.774;2023-02-18T11:10:54;101522.94;;;8.40;100.00
13612;BME280;6877;51.436;6.774;2023-02-18T11:13:27;101521.22;;;8.39;100.00
13612;BME280;6877;51.436;6.774;2023-02-18T11:16:06;101518.53;;;8.37;100.00
13612;BME280;6877;51.436;6.774;2023-02-18T11:18:43;101522.91;;;8.38;100.00
13612;BME280;6877;51.436;6.774;2023-02-18T11:21:28;101509.88;;;8.41;100.00
13612;BME280;6877;51.436;6.774;2023-02-18T11:24:07;101522.94;;;8.50;100.00
13612;BME280;6877;51.436;6.774;2023-02-18T11:26:35;101516.03;;;8.55;100.00
13612;BME280;6877;51.436;6.774;2023-02-18T11:31:42;101516.03;;;8.68;100.00
13612;BME280;6877;51.436;6.774;2023-02-18T11:34:30;101511.69;;;8.71;100.00
13612;BME280;6877;51.436;6.774;2023-02-18T11:37:10;101509.97;;;8.73;100.00
13612;BME280;6877;51.436;6.774;2023-02-18T11:39:48;101510.81;;;8.78;100.00
13612;BME280;6877;51.436;6.774;2023-02-18T11:42:20;101514.28;;;8.76;100.00
13612;BME280;6877;51.436;6.774;2023-02-18T11:44:54;101529.94;;;8.73;100.00
13612;BME280;6877;51.436;6.774;2023-02-18T11:47:25;101516.03;;;8.68;100.00
13612;BME280;6877;51.436;6.774;2023-02-18T11:52:46;101514.25;;;8.61;100.00
13612;BME280;6877;51.436;6.774;2023-02-18T11:57:59;101514.28;;;8.67;100.00
13612;BME280;6877;51.436;6.774;2023-02-18T12:03:54;101511.69;;;8.74;100.00
13612;BME280;6877;51.436;6.774;2023-02-18T12:05:55;101514.28;;;8.79;100.00
13612;BME280;6877;51.436;6.774;2023-02-18T12:08:36;101508.22;;;8.77;100.00
13612;BME280;6877;51.436;6.774;2023-02-18T12:11:11;101509.06;;;8.79;100.00
13612;BME280;6877;51.436;6.774;2023-02-18T12:13:57;101509.97;;;8.81;100.00
13612;BME280;6877;51.436;6.774;2023-02-18T12:27:23;101494.28;;;8.79;100.00
13612;BME280;6877;51.436;6.774;2023-02-18T12:30:08;101502.13;;;8.79;100.00
13612;BME280;6877;51.436;6.774;2023-02-18T12:32:52;101498.66;;;8.82;100.00
13612;BME280;6877;51.436;6.774;2023-02-18T12:41:12;101503.88;;;8.94;100.00
13612;BME280;6877;51.436;6.774;2023-02-18T12:44:03;101493.44;;;8.96;100.00
13612;BME280;6877;51.436;6.774;2023-02-18T12:57:42;101493.44;;;8.94;100.00
13612;BME280;6877;51.436;6.774;2023-02-18T13:03:23;101491.69;;;8.92;100.00
13612;BME280;6877;51.436;6.774;2023-02-18T13:09:07;101487.34;;;8.86;100.00
13612;BME280;6877;51.436;6.774;2023-02-18T13:14:46;101493.44;;;8.93;100.00
13612;BME280;6877;51.436;6.774;2023-02-18T13:17:17;101492.56;;;9.00;100.00
13612;BME280;6877;51.436;6.774;2023-02-18T13:20:16;101491.69;;;9.02;100.00
13612;BME280;6877;51.436;6.774;2023-02-18T13:22:51;101496.91;;;9.01;100.00
13612;BME280;6877;51.436;6.774;2023-02-18T13:25:36;101501.28;;;8.96;100.00
13612;BME280;6877;51.436;6.774;2023-02-18T13:30:51;101494.31;;;8.93;100.00
13612;BME280;6877;51.436;6.774;2023-02-18T13:33:29;101495.19;;;8.92;100.00
13612;BME280;6877;51.436;6.774;2023-02-18T13:41:27;101489.97;;;8.91;100.00
13612;BME280;6877;51.436;6.774;2023-02-18T13:43:54;101487.34;;;8.92;100.00
13612;BME280;6877;51.436;6.774;2023-02-18T13:46:25;101489.97;;;8.95;100.00
13612;BME280;6877;51.436;6.774;2023-02-18T13:51:32;101487.31;;;9.01;100.00
13612;BME280;6877;51.436;6.774;2023-02-18T13:54:17;101483.84;;;8.98;100.00
13612;BME280;6877;51.436;6.774;2023-02-18T13:57:02;101489.06;;;9.01;100.00
13612;BME280;6877;51.436;6.774;2023-02-18T13:59:43;101477.78;;;9.05;100.00
13612;BME280;6877;51.436;6.774;2023-02-18T14:13:17;101479.50;;;9.17;100.00
13612;BME280;6877;51.436;6.774;2023-02-18T14:26:27;101476.00;;;9.28;100.00
13612;BME280;6877;51.436;6.774;2023-02-18T14:28:58;101468.19;;;9.27;100.00
13612;BME280;6877;51.436;6.774;2023-02-18T14:34:39;101475.13;;;9.25;100.00
13612;BME280;6877;51.436;6.774;2023-02-18T14:51:08;101469.03;;;9.40;100.00
13612;BME280;6877;51.436;6.774;2023-02-18T14:53:42;101470.75;;;9.42;100.00
13612;BME280;6877;51.436;6.774;2023-02-18T14:56:16;101472.50;;;9.40;100.00
13612;BME280;6877;51.436;6.774;2023-02-18T14:58:47;101474.25;;;9.38;100.00
13612;BME280;6877;51.436;6.774;2023-02-18T15:01:21;101475.09;;;9.36;100.00
13612;BME280;6877;51.436;6.774;2023-02-18T15:03:53;101462.91;;;9.36;100.00
13612;BME280;6877;51.436;6.774;2023-02-18T15:06:28;101468.13;;;9.36;100.00
13612;BME280;6877;51.436;6.774;2023-02-18T15:09:14;101469.03;;;9.35;100.00
13612;BME280;6877;51.436;6.774;2023-02-18T15:11:45;101477.75;;;9.31;100.00
13612;BME280;6877;51.436;6.774;2023-02-18T15:14:20;101476.03;;;9.27;100.00
13612;BME280;6877;51.436;6.774;2023-02-18T15:16:52;101488.19;;;9.28;100.00
13612;BME280;6877;51.436;6.774;2023-02-18T15:19:23;101491.69;;;9.27;100.00
13612;BME280;6877;51.436;6.774;2023-02-18T15:21:52;101489.94;;;9.26;100.00
13612;BME280;6877;51.436;6.774;2023-02-18T15:27:15;101491.69;;;9.27;100.00
13612;BME280;6877;51.436;6.774;2023-02-18T15:29:42;101480.34;;;9.26;100.00
13612;BME280;6877;51.436;6.774;2023-02-18T15:32:15;101492.53;;;9.26;100.00
13612;BME280;6877;51.436;6.774;2023-02-18T15:34:51;101498.66;;;9.25;100.00
13612;BME280;6877;51.436;6.774;2023-02-18T15:37:23;101491.69;;;9.24;100.00
13612;BME280;6877;51.436;6.774;2023-02-18T15:39:50;101492.56;;;9.24;100.00
13612;BME280;6877;51.436;6.774;2023-02-18T15:42:25;101487.34;;;9.24;100.00
13612;BME280;6877;51.436;6.774;2023-02-18T15:45:14;101491.69;;;9.24;100.00
13612;BME280;6877;51.436;6.774;2023-02-18T15:47:48;101486.44;;;9.25;100.00
13612;BME280;6877;51.436;6.774;2023-02-18T15:50:36;101501.25;;;9.26;100.00
13612;BME280;6877;51.436;6.774;2023-02-18T15:53:07;101490.81;;;9.28;100.00
13612;BME280;6877;51.436;6.774;2023-02-18T15:55:37;101494.28;;;9.28;100.00
13612;BME280;6877;51.436;6.774;2023-02-18T15:58:10;101496.00;;;9.29;100.00
13612;BME280;6877;51.436;6.774;2023-02-18T16:00:48;101491.66;;;9.28;100.00
13612;BME280;6877;51.436;6.774;2023-02-18T16:03:24;101499.53;;;9.27;100.00
13612;BME280;6877;51.436;6.774;2023-02-18T16:09:17;101499.50;;;9.28;100.00
13612;BME280;6877;51.436;6.774;2023-02-18T16:11:47;101502.13;;;9.27;100.00